Wymer, West Virginia
Current Conditions -  °F | °C
As of 3:51 PM on Monday 24 Nov 2014 (Local Time) from KEKN Reporting Station
Broken Clouds Broken Clouds  
Wind Chill: 67°   Ceiling: 7500
Heat Index: 67°   Visibility: 10mi
Dew Point: 40°   Wind: 18mph
Humidity: 37%   Direction: 230°SW
Pressure: 29.62"   Gusts: 26mph
Location:  38.9499°N, 79.6438°W
Report Text: KEKN 242051Z AUTO 23016G23KT 10SM BKN075 BKN090 19/04 A2962 RMK AO2 PK WND 23033/2003 SLP024 T01940044 53019 TSNO
Loading
Personal Weather Stations






























Interactive Weather Map New forecast layout! Learn more

10-Day Weather Forecast

Advertisements
Track Severe Weather on mobile